Latest Weather Observations for Ben Nevis

IDV60801

Issued at 10:35 pm EST Thursday 28 August 2014 (issued every 30 minutes, with the page automatically refreshed every 10 minutes)

About weather observations | Map of weather stations | Latest weather observations for VIC | Other Formats
Station Details ID: 079101 Name: BEN NEVIS Lat: -37.23 Lon: 143.20 Height: 875.0 m
Data from the previous 72 hours. | See also: Recent months at Ben Nevis
Date/Time
EST
Temp
°C
App
Temp
°C
Dew
Point
Rel
Hum
%
Delta-T
°C
Wind Press
QNH
hPa
Press
MSL
hPa
Rain
since 9 am
mm
Dir
 
Spd
km/h
Gust
km/h
Spd
kts
Gust
kts
28/10:30pm 9.6 5.8 5.6 76 1.9 SSW 15 19 8 10 - - -
28/10:00pm 9.9 6.2 6.1 77 1.8 SSW 15 19 8 10 - - -
28/09:30pm 9.8 6.5 6.3 79 1.7 SSW 13 17 7 9 - - -
28/09:00pm 10.0 6.3 6.5 79 1.7 S 15 20 8 11 - - 0.0
28/08:30pm 10.2 6.1 6.4 77 1.9 S 17 20 9 11 - - -
28/08:00pm 10.5 6.7 5.9 73 2.2 SSW 15 20 8 11 - - -
28/07:30pm 10.3 6.9 5.9 74 2.1 SSW 13 17 7 9 - - -
28/07:00pm 10.6 7.5 5.6 71 2.4 SSW 11 13 6 7 - - -
28/06:30pm 10.8 7.3 5.6 70 2.5 SSW 13 15 7 8 - - -
28/06:00pm 11.5 9.3 6.0 69 2.7 WSW 7 11 4 6 - - -
28/05:30pm 12.6 10.4 6.4 66 3.1 WSW 7 11 4 6 - - -
28/05:00pm 13.2 11.5 6.1 62 3.5 SW 4 9 2 5 - - -
28/04:30pm 13.9 11.7 6.0 59 3.9 WNW 7 13 4 7 - - -
28/04:00pm 14.2 11.6 6.1 58 4.1 NW 9 13 5 7 - - -
28/03:30pm 15.3 13.3 7.1 58 4.2 NW 7 13 4 7 - - -
28/03:00pm 15.4 13.0 6.9 57 4.4 NW 9 15 5 8 - - 0.0
28/02:30pm 15.9 13.6 7.4 57 4.4 WNW 9 15 5 8 - - -
28/02:00pm 15.5 13.0 6.5 55 4.6 WNW 9 13 5 7 - - -
28/01:30pm 14.9 11.8 5.7 54 4.6 W 11 19 6 10 - - -
28/01:00pm 14.8 11.9 6.4 57 4.3 W 11 19 6 10 - - -
28/12:30pm 14.1 11.6 6.7 61 3.8 NW 9 15 5 8 - - -
28/12:00pm 14.3 - 6.9 61 3.8 - - - - - - - -
28/11:31am 13.8 6.1 7.3 65 3.3 ESE 37 70 20 38 - - 0.0
28/11:30am 14.0 10.3 7.8 66 3.2 NNW 17 70 9 38 - - 0.0
28/11:25am 13.4 6.2 6.0 61 3.7 WNW 33 69 18 37 - - 0.0
28/11:00am 13.1 11.2 6.7 65 3.2 SW 6 9 3 5 - - 0.0
28/10:30am 12.9 10.6 4.8 58 3.9 SW 6 9 3 5 - - 0.0
28/10:00am 12.1 9.2 4.6 60 3.6 SW 9 13 5 7 - - 0.0
28/09:30am 11.7 9.2 4.9 63 3.3 SW 7 13 4 7 - - 0.0
28/09:00am 10.9 8.1 5.0 67 2.8 SW 9 13 5 7 - - 0.0
28/08:30am 10.5 7.2 4.4 66 2.9 SW 11 15 6 8 - - 0.0
28/08:00am 9.7 6.0 4.5 70 2.4 SW 13 19 7 10 - - 0.0
28/07:30am 9.2 5.0 4.0 70 2.4 SW 15 19 8 10 - - 0.0
28/07:00am 8.9 4.7 3.7 70 2.4 SW 15 19 8 10 - - 0.0
28/06:30am 8.2 4.2 3.1 70 2.3 SW 13 17 7 9 - - 0.0
28/06:00am 8.4 4.5 3.5 71 2.2 SW 13 17 7 9 - - 0.0
28/05:30am 8.5 4.2 3.4 70 2.3 SW 15 17 8 9 - - 0.0
28/05:00am 8.6 4.3 3.4 70 2.4 SW 15 20 8 11 - - 0.0
28/04:30am 8.6 4.5 4.2 74 2.0 SW 15 19 8 10 - - 0.0
28/04:00am 8.5 4.7 3.8 72 2.1 SW 13 17 7 9 - - 0.0
28/03:30am 8.5 4.4 4.3 75 1.9 SW 15 19 8 10 - - 0.0
28/03:00am 8.6 4.5 4.4 75 1.9 SW 15 19 8 10 - - 0.0
28/02:30am 8.7 4.6 4.3 74 2.0 SSW 15 19 8 10 - - 0.0
28/02:00am 8.8 4.7 4.4 74 2.0 SSW 15 19 8 10 - - 0.0
28/01:30am 8.7 4.6 4.3 74 2.0 SSW 15 19 8 10 - - 0.0
28/01:00am 8.7 5.0 4.5 75 2.0 SSW 13 17 7 9 - - 0.0
28/12:30am 8.9 5.5 4.1 72 2.2 SSW 11 15 6 8 - - 0.0
28/12:00am 8.7 5.3 3.9 72 2.2 SSW 11 15 6 8 - - 0.0
 
Date/Time
EST
Temp
°C
App
Temp
°C
Dew
Point
Rel
Hum
%
Delta-T
°C
Wind Press
QNH
hPa
Press
MSL
hPa
Rain
since 9 am
mm
Dir
 
Spd
km/h
Gust
km/h
Spd
kts
Gust
kts
27/11:30pm 8.8 5.0 3.8 71 2.3 SSW 13 15 7 8 - - 0.0
27/11:00pm 9.0 5.2 3.8 70 2.4 SSW 13 17 7 9 - - 0.0
27/10:30pm 9.0 5.1 3.6 69 2.5 SSW 13 17 7 9 - - 0.0
27/10:00pm 9.0 5.2 3.8 70 2.4 SSW 13 17 7 9 - - 0.0
27/09:30pm 8.9 5.1 3.7 70 2.4 SSW 13 17 7 9 - - 0.0
27/09:00pm 9.1 5.3 3.7 69 2.5 SSW 13 17 7 9 - - 0.0
27/08:30pm 9.2 5.4 3.8 69 2.5 SSW 13 15 7 8 - - 0.0
27/08:00pm 9.4 5.6 4.0 69 2.5 SSW 13 17 7 9 - - 0.0
27/07:30pm 9.4 6.0 4.0 69 2.5 SSW 11 15 6 8 - - 0.0
27/07:00pm 9.5 6.1 4.1 69 2.5 SSW 11 15 6 8 - - 0.0
27/06:30pm 10.0 6.5 5.4 73 2.2 S 13 17 7 9 - - 0.0
27/06:00pm 10.3 6.8 5.3 71 2.4 S 13 19 7 10 - - 0.0
27/05:30pm 11.0 6.7 5.1 67 2.8 S 17 20 9 11 - - 0.0
27/05:00pm 12.0 8.4 5.2 63 3.3 SSW 13 19 7 10 - - 0.0
27/04:30pm 12.7 8.4 5.4 61 3.6 SSW 17 22 9 12 - - 0.0
27/04:00pm 12.9 8.6 5.1 59 3.8 SSW 17 20 9 11 - - 0.0
27/03:30pm 13.6 10.4 5.0 56 4.2 SSW 11 17 6 9 - - 0.0
27/03:00pm 14.1 10.7 5.7 57 4.2 SW 13 20 7 11 - - 0.0
27/02:30pm 14.2 11.7 4.5 52 4.7 SW 7 11 4 6 - - 0.0
27/02:00pm 15.1 11.7 6.1 55 4.5 SW 13 19 7 10 - - 0.0
27/01:30pm 14.4 12.1 5.5 55 4.4 SSW 7 11 4 6 - - 0.0
27/01:00pm 14.0 11.1 6.4 60 3.8 WSW 11 20 6 11 - - 0.0
27/12:30pm 14.0 11.5 6.6 61 3.7 W 9 15 5 8 - - 0.0
27/12:00pm 14.0 10.7 4.3 52 4.7 W 11 20 6 11 - - 0.0
27/11:30am 14.4 12.1 5.5 55 4.4 WNW 7 11 4 6 - - 0.0
27/11:00am 13.7 11.0 5.6 58 4.0 W 9 17 5 9 - - 0.0
27/10:30am 13.2 9.4 5.6 60 3.7 W 15 20 8 11 - - 0.0
27/10:00am 12.3 9.3 5.9 65 3.2 W 11 17 6 9 - - 0.0
27/09:30am 11.0 7.7 4.7 65 3.0 WNW 11 15 6 8 - - 0.0
27/09:00am 10.2 7.2 4.1 66 2.8 WNW 9 15 5 8 - - 0.0
27/08:30am 9.6 6.6 4.0 68 2.6 WNW 9 11 5 6 - - 0.0
27/08:00am 9.1 6.4 3.7 69 2.5 WNW 7 11 4 6 - - 0.0
27/07:30am 8.4 5.7 3.5 71 2.2 WNW 7 11 4 6 - - 0.0
27/07:00am 8.0 5.5 3.8 75 1.9 WNW 6 11 3 6 - - 0.0
27/06:30am 8.0 5.0 4.2 77 1.7 NNW 9 13 5 7 - - 0.0
27/06:00am 7.9 5.2 3.8 75 1.9 NW 7 11 4 6 - - 0.0
27/05:30am 7.9 5.4 3.8 75 1.9 NW 6 9 3 5 - - 0.0
27/05:00am 8.4 5.7 3.7 72 2.1 NW 7 13 4 7 - - 0.0
27/04:30am 8.1 4.9 3.2 71 2.2 NW 9 11 5 6 - - 0.0
27/04:00am 8.6 4.7 3.4 70 2.4 NNW 13 17 7 9 - - 0.0
27/03:30am 8.2 5.1 3.7 73 2.0 NW 9 13 5 7 - - 0.0
27/03:00am 8.6 4.8 4.0 73 2.1 NNW 13 17 7 9 - - 0.0
27/02:30am 8.6 4.8 3.8 72 2.2 NW 13 17 7 9 - - 0.0
27/02:00am 8.1 5.1 4.1 76 1.8 N 9 13 5 7 - - 0.0
27/01:30am 7.9 4.5 4.1 77 1.7 N 11 17 6 9 - - 0.0
27/01:00am 8.0 4.6 4.2 77 1.7 N 11 17 6 9 - - 0.0
27/12:30am 7.7 4.4 4.5 80 1.5 NNE 11 15 6 8 - - 0.0
27/12:00am 7.8 4.9 4.4 79 1.6 NNE 9 15 5 8 - - 0.0
 
Date/Time
EST
Temp
°C
App
Temp
°C
Dew
Point
Rel
Hum
%
Delta-T
°C
Wind Press
QNH
hPa
Press
MSL
hPa
Rain
since 9 am
mm
Dir
 
Spd
km/h
Gust
km/h
Spd
kts
Gust
kts
26/11:30pm 8.0 5.1 4.4 78 1.7 NNE 9 17 5 9 - - 0.0
26/11:00pm 8.2 4.9 4.6 78 1.7 NE 11 15 6 8 - - 0.0
26/10:30pm 8.1 4.8 4.3 77 1.8 NE 11 15 6 8 - - 0.0
26/10:00pm 9.4 5.7 4.6 72 2.3 NE 13 15 7 8 - - 0.0
26/09:30pm 9.6 6.0 4.8 72 2.3 NE 13 17 7 9 - - 0.0
26/09:00pm 9.7 6.0 4.5 70 2.4 NE 13 17 7 9 - - 0.0
26/08:30pm 9.7 6.1 5.1 73 2.2 NE 13 17 7 9 - - 0.0
26/08:00pm 9.5 6.1 5.7 77 1.8 NE 13 15 7 8 - - 0.0
26/07:30pm 9.3 5.9 5.9 79 1.6 E 13 19 7 10 - - 0.0
26/07:00pm 9.5 6.2 6.4 81 1.5 SSE 13 17 7 9 - - 0.0
26/06:30pm 9.7 7.3 6.8 82 1.4 SSE 9 11 5 6 - - 0.0
26/06:00pm 9.5 7.5 7.3 86 1.1 SSE 7 11 4 6 - - 0.0
26/05:30pm 10.1 8.1 7.2 82 1.4 SSE 7 11 4 6 - - 0.0
26/05:00pm 10.2 8.3 7.4 83 1.4 SSE 7 11 4 6 - - 0.0
26/04:30pm 10.9 8.6 7.4 79 1.8 SSE 9 15 5 8 - - 0.0
26/04:00pm 12.2 10.0 7.9 75 2.2 SSE 9 17 5 9 - - 0.0
26/03:30pm 12.1 10.4 8.4 78 1.9 SSE 7 13 4 7 - - 0.0
26/03:00pm 12.0 10.1 7.5 74 2.3 WNW 7 15 4 8 - - 0.0
26/02:30pm 13.9 12.5 8.9 72 2.7 NNW 6 7 3 4 - - 0.0
26/02:00pm 12.2 10.5 8.5 78 1.9 E 7 13 4 7 - - 0.0
26/01:30pm 12.6 10.9 8.3 75 2.2 N 7 11 4 6 - - 0.0
26/01:00pm 10.8 8.8 7.1 78 1.9 N 7 11 4 6 - - 0.0
26/12:30pm 10.7 8.9 7.0 78 1.8 N 6 9 3 5 - - 0.0
26/12:00pm 12.1 10.3 8.0 76 2.1 N 7 11 4 6 - - 0.0
26/11:30am 11.3 9.4 6.8 74 2.2 NE 6 11 3 6 - - 0.0
26/11:00am 10.7 8.6 5.9 72 2.3 ESE 6 9 3 5 - - 0.0
26/10:30am 9.9 6.9 4.3 68 2.6 E 9 15 5 8 - - 0.0
26/10:00am 9.3 6.4 4.7 73 2.2 E 9 15 5 8 - - 0.0
26/09:30am 8.8 5.0 3.8 71 2.3 ENE 13 20 7 11 - - 0.0
26/09:00am 8.1 3.0 3.2 71 2.2 E 19 26 10 14 - - 1.4
26/08:30am 7.9 3.2 3.0 71 2.2 ENE 17 22 9 12 - - 1.4
26/08:00am 6.9 1.7 3.5 79 1.5 E 20 26 11 14 - - 1.4
26/07:30am 6.0 0.2 4.2 88 0.8 E 24 32 13 17 - - 1.4
26/07:00am 5.1 -1.6 3.9 92 0.5 E 28 37 15 20 - - 1.4
26/06:30am 5.0 -0.9 4.1 94 0.4 E 24 35 13 19 - - 1.4
26/06:00am 5.4 -0.8 4.1 91 0.6 ESE 26 37 14 20 - - 1.4
26/05:30am 5.9 -1.2 3.6 85 1.0 E 30 43 16 23 - - 1.4
26/05:00am 6.1 -0.7 3.1 81 1.3 E 28 39 15 21 - - 1.4
26/04:30am 6.2 -0.7 2.7 78 1.5 E 28 39 15 21 - - 1.4
26/04:00am 5.8 -0.7 2.8 81 1.3 E 26 37 14 20 - - 1.4
26/03:30am 6.1 -0.4 2.6 78 1.5 ESE 26 33 14 18 - - 1.4
26/03:00am 5.9 -0.5 3.2 83 1.2 ESE 26 35 14 19 - - 1.4
26/02:30am 5.5 -1.2 3.8 89 0.8 ESE 28 39 15 21 - - 1.4
26/02:00am 4.9 -1.6 4.5 97 0.2 ESE 28 41 15 22 - - 1.4
26/01:30am 4.7 -0.7 4.6 99 0.0 SE 22 30 12 16 - - 1.4
26/01:00am 4.7 -0.3 4.4 98 0.1 SE 20 32 11 17 - - 1.4
26/12:30am 4.7 0.2 4.4 98 0.1 SE 17 33 9 18 - - 1.4
26/12:00am 4.5 -0.4 4.1 97 0.2 SSE 19 30 10 16 - - 1.4
 
Date/Time
EST
Temp
°C
App
Temp
°C
Dew
Point
Rel
Hum
%
Delta-T
°C
Wind Press
QNH
hPa
Press
MSL
hPa
Rain
since 9 am
mm
Dir
 
Spd
km/h
Gust
km/h
Spd
kts
Gust
kts
25/11:30pm 4.7 -0.7 4.6 99 0.0 SE 22 33 12 18 - - 1.4
25/11:00pm 4.9 -1.6 4.8 99 0.0 SE 28 41 15 22 - - 1.4

Other Formats:

Comma delimited format used in spreadsheet applications
http://www.bom.gov.au/fwo/IDV60801/IDV60801.94835.axf

JavaScript Object Notation format (JSON) in row-major order
http://www.bom.gov.au/fwo/IDV60801/IDV60801.94835.json